Time;durP1;ratioP1;P1;durP2;ratioP2;P2;SDS_P1;SDS_P2;PMS_P1;PMS_P2;Temp;Humidity;BMP_temperature;BMP_pressure;BME280_temperature;BME280_humidity;BME280_pressure;Samples;Min_cycle;Max_cycle;Signal;HPM_P1;HPM_P2
2022/10/13 00:00:44;;;;;;;8.10;6.00;;;12.60;99.90;;;;;;5030176;28;20808;-71
2022/10/13 00:03:10;;;;;;;12.73;6.30;;;12.50;99.90;;;;;;5030059;28;20387;-72
2022/10/13 00:05:41;;;;;;;10.10;6.68;;;12.50;99.90;;;;;;5030222;28;20403;-71
2022/10/13 00:08:06;;;;;;;10.73;6.40;;;12.40;99.90;;;;;;5030131;28;20486;-71
2022/10/13 00:10:35;;;;;;;11.32;6.90;;;12.30;99.90;;;;;;5030044;28;20828;-71
2022/10/13 00:13:01;;;;;;;10.27;6.72;;;12.20;99.90;;;;;;5029921;28;20533;-72
2022/10/13 00:15:26;;;;;;;10.90;6.70;;;12.10;99.90;;;;;;5029913;28;20391;-72
2022/10/13 00:17:52;;;;;;;9.43;6.73;;;12.20;99.90;;;;;;5030179;28;20419;-72
2022/10/13 00:20:17;;;;;;;10.63;6.63;;;12.20;99.90;;;;;;5029783;28;20457;-72
2022/10/13 00:22:43;;;;;;;8.87;6.70;;;12.10;99.90;;;;;;5017473;28;20871;-71
2022/10/13 00:25:08;;;;;;;10.30;7.40;;;12.10;99.90;;;;;;5020219;28;20416;-73
2022/10/13 00:27:34;;;;;;;10.80;6.53;;;12.10;99.90;;;;;;5030166;28;20410;-73
2022/10/13 00:29:59;;;;;;;9.53;7.07;;;12.00;99.90;;;;;;5030027;28;20390;-72
2022/10/13 00:32:25;;;;;;;7.88;6.95;;;12.00;99.90;;;;;;5029623;28;20391;-72
2022/10/13 00:34:51;;;;;;;9.15;6.90;;;11.90;99.90;;;;;;5029751;28;20965;-72
2022/10/13 00:37:16;;;;;;;7.43;6.60;;;12.00;99.90;;;;;;5029559;28;20399;-72
2022/10/13 00:39:42;;;;;;;9.87;6.97;;;12.00;99.90;;;;;;5030005;28;20387;-72
2022/10/13 00:42:11;;;;;;;8.37;6.40;;;12.00;99.90;;;;;;5029787;28;20752;-72
2022/10/13 00:45:04;;;;;;;10.00;6.82;;;12.00;99.90;;;;;;5029562;28;20765;-72
2022/10/13 00:47:37;;;;;;;7.13;6.43;;;11.90;99.90;;;;;;5030320;28;20403;-72
2022/10/13 00:50:06;;;;;;;9.02;6.75;;;11.80;99.90;;;;;;5030039;28;20383;-73
2022/10/13 00:52:32;;;;;;;6.93;6.22;;;11.80;99.90;;;;;;5029106;28;20456;-72
2022/10/13 00:54:58;;;;;;;10.98;6.72;;;11.60;99.90;;;;;;5029707;28;20746;-72
2022/10/13 00:57:24;;;;;;;9.98;7.15;;;11.60;99.90;;;;;;5029764;28;20749;-72
2022/10/13 00:59:50;;;;;;;9.60;6.60;;;11.60;99.90;;;;;;5029949;28;20510;-72
2022/10/13 01:02:16;;;;;;;9.40;7.00;;;11.60;99.90;;;;;;5029738;28;20774;-72
2022/10/13 01:04:45;;;;;;;8.55;7.03;;;11.60;99.90;;;;;;5029334;28;20432;-72
2022/10/13 01:07:16;;;;;;;12.15;7.05;;;11.70;99.90;;;;;;5029637;28;20407;-72
2022/10/13 01:09:42;;;;;;;6.60;6.00;;;11.70;99.90;;;;;;5030482;28;20380;-72
2022/10/13 01:12:17;;;;;;;7.93;6.55;;;11.70;99.90;;;;;;5029586;28;20895;-73
2022/10/13 01:14:49;;;;;;;9.23;6.53;;;11.70;99.90;;;;;;5029366;28;20375;-71
2022/10/13 01:17:43;;;;;;;10.38;7.00;;;11.80;99.90;;;;;;5029525;28;20375;-72
2022/10/13 01:20:34;;;;;;;8.10;7.00;;;11.70;99.90;;;;;;5029688;28;20383;-73
2022/10/13 01:23:15;;;;;;;8.73;6.82;;;11.60;99.90;;;;;;5028972;28;20395;-74
2022/10/13 01:26:06;;;;;;;9.30;6.85;;;11.70;99.90;;;;;;5029126;28;20436;-73
2022/10/13 01:28:50;;;;;;;9.18;7.18;;;11.70;99.90;;;;;;5029678;28;20383;-74
2022/10/13 01:31:38;;;;;;;9.15;6.97;;;11.60;99.90;;;;;;5029198;28;20414;-73
2022/10/13 01:34:38;;;;;;;12.63;7.13;;;11.50;99.90;;;;;;5029442;28;20379;-73
2022/10/13 01:37:17;;;;;;;9.05;7.60;;;11.50;99.90;;;;;;5029894;28;20406;-73
2022/10/13 01:39:55;;;;;;;10.23;7.50;;;11.50;99.90;;;;;;5033125;28;20478;-71
2022/10/13 01:42:41;;;;;;;13.32;8.20;;;11.60;99.90;;;;;;5033233;28;20462;-71
2022/10/13 01:45:11;;;;;;;9.80;6.80;;;11.70;99.90;;;;;;5033007;28;20730;-71
2022/10/13 01:47:38;;;;;;;9.80;7.50;;;11.70;99.90;;;;;;5032502;28;20391;-73
2022/10/13 01:50:06;;;;;;;10.38;7.72;;;11.70;99.90;;;;;;5015237;28;20448;-74
2022/10/13 01:52:35;;;;;;;9.07;7.22;;;11.80;99.90;;;;;;5032783;28;20411;-73
2022/10/13 01:55:10;;;;;;;8.00;7.20;;;11.80;99.90;;;;;;5032926;28;20387;-73
2022/10/13 01:57:41;;;;;;;7.90;6.80;;;11.90;99.90;;;;;;5032804;28;20399;-73
2022/10/13 02:00:18;;;;;;;9.50;7.70;;;11.90;99.90;;;;;;5032667;28;20417;-73
2022/10/13 02:02:59;;;;;;;10.02;7.10;;;11.80;99.90;;;;;;5032016;28;20477;-73
2022/10/13 02:05:50;;;;;;;9.30;7.10;;;11.70;99.90;;;;;;5032178;28;20423;-71
2022/10/13 02:08:28;;;;;;;10.38;7.00;;;11.60;99.90;;;;;;5032332;28;20391;-71
2022/10/13 02:11:12;;;;;;;8.98;6.82;;;11.60;99.90;;;;;;5032730;28;20391;-73
2022/10/13 02:13:46;;;;;;;9.80;6.70;;;11.50;99.90;;;;;;5031967;28;20715;-73
2022/10/13 02:16:14;;;;;;;9.43;6.90;;;11.50;99.90;;;;;;5032315;28;20950;-72
2022/10/13 02:18:40;;;;;;;8.40;6.80;;;11.30;99.90;;;;;;5013835;28;20769;-71
2022/10/13 02:21:06;;;;;;;10.00;7.40;;;11.30;99.90;;;;;;5032062;28;20481;-72
2022/10/13 02:23:31;;;;;;;9.82;7.22;;;11.30;99.90;;;;;;4995122;28;20396;-72
2022/10/13 02:25:59;;;;;;;8.07;7.32;;;11.40;99.90;;;;;;5012512;28;20409;-71
2022/10/13 02:28:25;;;;;;;8.10;6.80;;;11.40;99.90;;;;;;5012316;28;20384;-71
2022/10/13 02:30:51;;;;;;;10.35;7.18;;;11.30;99.90;;;;;;5012139;28;20396;-71
2022/10/13 02:33:17;;;;;;;7.90;7.10;;;11.30;99.90;;;;;;5012805;28;20384;-71
2022/10/13 02:35:43;;;;;;;10.40;7.45;;;11.20;99.90;;;;;;5031952;28;20409;-72
2022/10/13 02:38:09;;;;;;;8.13;7.30;;;11.20;99.90;;;;;;5031695;28;20768;-72
2022/10/13 02:40:35;;;;;;;12.43;8.50;;;11.10;99.90;;;;;;5031922;28;20379;-72
2022/10/13 02:43:00;;;;;;;10.00;7.80;;;11.00;99.90;;;;;;5013780;28;20915;-72
2022/10/13 02:45:26;;;;;;;11.75;8.00;;;11.10;99.90;;;;;;5031630;28;20383;-72
2022/10/13 02:47:51;;;;;;;8.50;7.70;;;11.00;99.90;;;;;;5031394;28;20384;-72
2022/10/13 02:50:17;;;;;;;8.63;7.20;;;11.00;99.90;;;;;;5031794;28;20390;-72
2022/10/13 02:52:43;;;;;;;9.17;7.30;;;10.90;99.90;;;;;;5031104;28;20402;-72
2022/10/13 02:55:08;;;;;;;11.43;7.77;;;10.90;99.90;;;;;;5031296;28;20726;-72
2022/10/13 02:57:34;;;;;;;8.15;7.32;;;10.80;99.90;;;;;;5031506;28;20863;-72
2022/10/13 03:00:00;;;;;;;10.73;7.57;;;10.70;99.90;;;;;;5013549;28;20379;-72
2022/10/13 03:02:26;;;;;;;9.00;7.27;;;10.60;99.90;;;;;;5031249;28;20439;-72
2022/10/13 03:04:53;;;;;;;9.70;7.72;;;10.60;99.90;;;;;;5031294;28;20379;-72
2022/10/13 03:07:19;;;;;;;8.68;7.78;;;10.60;99.90;;;;;;5030871;28;20427;-72
2022/10/13 03:09:44;;;;;;;9.95;7.03;;;10.60;99.90;;;;;;5031247;28;20467;-72
2022/10/13 03:12:10;;;;;;;8.82;7.20;;;10.60;99.90;;;;;;5031095;28;20379;-71
2022/10/13 03:14:36;;;;;;;9.77;7.30;;;10.60;99.90;;;;;;5030900;28;20437;-71
2022/10/13 03:17:02;;;;;;;10.55;7.53;;;10.50;99.90;;;;;;5030898;28;20406;-72
2022/10/13 03:19:28;;;;;;;9.45;7.65;;;10.40;99.90;;;;;;5029883;28;20403;-71
2022/10/13 03:21:54;;;;;;;10.20;7.10;;;10.50;99.90;;;;;;5030807;28;20411;-72
2022/10/13 03:24:19;;;;;;;8.50;7.70;;;10.50;99.90;;;;;;5030607;28;20916;-71
2022/10/13 03:26:45;;;;;;;8.93;6.93;;;10.50;99.90;;;;;;5013088;28;20403;-71
2022/10/13 03:29:15;;;;;;;10.20;6.80;;;10.50;99.90;;;;;;5030172;28;20445;-71
2022/10/13 03:31:41;;;;;;;8.68;7.53;;;10.60;99.90;;;;;;5027581;28;20387;-71
2022/10/13 03:34:07;;;;;;;9.93;7.27;;;10.50;99.90;;;;;;5030790;28;20853;-71
2022/10/13 03:36:33;;;;;;;14.55;7.68;;;10.50;99.90;;;;;;5031214;28;20799;-71
2022/10/13 03:38:58;;;;;;;8.53;7.33;;;10.50;99.90;;;;;;5031100;28;20470;-71
2022/10/13 03:41:24;;;;;;;9.90;7.50;;;10.50;99.90;;;;;;5031403;28;20459;-71
2022/10/13 03:43:50;;;;;;;10.23;7.78;;;10.50;99.90;;;;;;5029859;28;20395;-71
2022/10/13 03:46:16;;;;;;;8.27;7.38;;;10.50;99.90;;;;;;5030652;28;20568;-71
2022/10/13 03:48:42;;;;;;;10.05;7.35;;;10.40;99.90;;;;;;5030930;28;20388;-71
2022/10/13 03:51:10;;;;;;;9.95;7.20;;;10.40;99.90;;;;;;5030976;28;20466;-71
2022/10/13 03:53:36;;;;;;;7.70;7.00;;;10.40;99.90;;;;;;5030309;28;20403;-72
2022/10/13 03:56:03;;;;;;;7.53;6.50;;;10.40;99.90;;;;;;5031207;28;20410;-71
2022/10/13 03:58:29;;;;;;;8.27;6.70;;;10.40;99.90;;;;;;5030245;28;20391;-71
2022/10/13 04:00:55;;;;;;;8.67;7.07;;;10.40;99.90;;;;;;5030138;28;20403;-71
2022/10/13 04:03:21;;;;;;;9.65;7.15;;;10.40;99.90;;;;;;5029977;28;20395;-71
2022/10/13 04:05:46;;;;;;;9.53;7.40;;;10.60;99.90;;;;;;5030699;28;20965;-71
2022/10/13 04:08:13;;;;;;;10.27;7.30;;;10.60;99.90;;;;;;5030557;28;20393;-71
2022/10/13 04:10:39;;;;;;;8.80;7.13;;;10.60;99.90;;;;;;5030736;28;20421;-72
2022/10/13 04:13:05;;;;;;;10.43;7.50;;;10.60;99.90;;;;;;5029778;28;20391;-71
2022/10/13 04:15:34;;;;;;;7.50;6.80;;;10.60;99.90;;;;;;5012797;28;20467;-71
2022/10/13 04:18:00;;;;;;;8.55;7.32;;;10.60;99.90;;;;;;5030427;28;20383;-72
2022/10/13 04:20:26;;;;;;;8.25;7.35;;;10.70;99.90;;;;;;5012961;28;20441;-71
2022/10/13 04:22:51;;;;;;;10.52;6.50;;;10.60;99.90;;;;;;5030228;28;20398;-72
2022/10/13 04:25:17;;;;;;;7.30;6.60;;;10.50;99.90;;;;;;5030326;28;20439;-72
2022/10/13 04:27:42;;;;;;;9.82;7.57;;;10.60;99.90;;;;;;5030268;28;20399;-72
2022/10/13 04:30:09;;;;;;;8.20;6.83;;;10.60;99.90;;;;;;5029250;28;20398;-72
2022/10/13 04:32:34;;;;;;;8.85;7.72;;;10.60;99.90;;;;;;5029767;28;20398;-72
2022/10/13 04:35:00;;;;;;;8.50;7.32;;;10.60;99.90;;;;;;5043226;28;20388;-72
2022/10/13 04:37:25;;;;;;;8.20;6.90;;;10.50;99.90;;;;;;5041765;28;20893;-72
2022/10/13 04:39:51;;;;;;;8.70;7.27;;;10.50;99.90;;;;;;5050129;28;20389;-72
2022/10/13 04:42:16;;;;;;;8.03;6.87;;;10.50;99.90;;;;;;5040638;28;20476;-72
2022/10/13 04:44:42;;;;;;;7.10;6.25;;;10.50;99.90;;;;;;5020097;28;20401;-72
2022/10/13 04:47:07;;;;;;;9.07;6.87;;;10.50;99.90;;;;;;5035266;28;20893;-72
2022/10/13 04:49:33;;;;;;;8.67;7.20;;;10.50;99.90;;;;;;5030157;28;20383;-72
2022/10/13 04:51:59;;;;;;;11.53;7.60;;;10.40;99.90;;;;;;5030055;28;20391;-72
2022/10/13 04:54:24;;;;;;;9.07;7.70;;;10.40;99.90;;;;;;5029632;28;20414;-72
2022/10/13 04:56:50;;;;;;;9.90;8.03;;;10.40;99.90;;;;;;5029994;28;20391;-72
2022/10/13 04:59:15;;;;;;;8.90;6.97;;;10.30;99.90;;;;;;5029980;28;20460;-71
2022/10/13 05:01:41;;;;;;;12.35;7.60;;;10.30;99.90;;;;;;5029720;28;20445;-72
2022/10/13 05:04:07;;;;;;;9.10;7.40;;;10.40;99.90;;;;;;5029213;28;20797;-72
2022/10/13 05:06:36;;;;;;;8.98;6.63;;;10.50;99.90;;;;;;5029669;28;20407;-72
2022/10/13 05:09:02;;;;;;;10.80;7.38;;;10.40;99.90;;;;;;5030316;28;20442;-72
2022/10/13 05:11:28;;;;;;;8.27;6.70;;;10.40;99.90;;;;;;5028801;28;20386;-72
2022/10/13 05:13:54;;;;;;;8.60;6.20;;;10.40;99.90;;;;;;5033757;28;20411;-72
2022/10/13 05:16:21;;;;;;;8.43;6.53;;;10.40;99.90;;;;;;5032716;28;20418;-72
2022/10/13 05:18:48;;;;;;;9.90;6.80;;;10.30;99.90;;;;;;5033823;28;20458;-71
2022/10/13 05:21:17;;;;;;;7.00;6.30;;;10.40;99.90;;;;;;5015212;28;20395;-71
2022/10/13 05:23:44;;;;;;;9.20;6.70;;;10.30;99.90;;;;;;5032914;28;20407;-71
2022/10/13 05:26:12;;;;;;;8.02;6.47;;;10.40;99.90;;;;;;5015636;28;20418;-71
2022/10/13 05:28:38;;;;;;;8.45;6.50;;;10.40;99.90;;;;;;5033614;28;20383;-72
2022/10/13 05:31:18;;;;;;;8.40;6.60;;;10.40;99.90;;;;;;5032594;28;20417;-71
2022/10/13 05:33:44;;;;;;;9.30;6.80;;;10.40;99.90;;;;;;5008143;28;20426;-71
2022/10/13 05:36:13;;;;;;;10.25;6.60;;;10.40;99.90;;;;;;5028796;28;20410;-71
2022/10/13 05:38:39;;;;;;;8.07;6.63;;;10.40;99.90;;;;;;5027045;28;20429;-71
2022/10/13 05:41:08;;;;;;;13.80;6.80;;;10.50;99.90;;;;;;5028109;28;20750;-71
2022/10/13 05:43:34;;;;;;;10.68;6.80;;;10.40;99.90;;;;;;5023908;28;20390;-71
2022/10/13 05:46:00;;;;;;;8.85;6.40;;;10.40;99.90;;;;;;5022709;28;20419;-71
2022/10/13 05:48:26;;;;;;;11.03;6.73;;;10.40;99.90;;;;;;5025669;28;21190;-71
2022/10/13 05:50:53;;;;;;;7.45;6.50;;;10.50;99.90;;;;;;5022441;28;20442;-71
2022/10/13 05:53:20;;;;;;;8.40;6.72;;;10.60;99.90;;;;;;5032741;28;20393;-71
2022/10/13 05:55:46;;;;;;;7.50;6.45;;;10.60;99.90;;;;;;5034001;28;20437;-71
2022/10/13 05:58:11;;;;;;;9.63;6.90;;;10.60;99.90;;;;;;5029220;28;20909;-71
2022/10/13 06:00:40;;;;;;;8.48;6.90;;;10.60;99.90;;;;;;5021596;28;20553;-71
2022/10/13 06:03:13;;;;;;;7.38;6.30;;;10.60;99.90;;;;;;5030839;28;20407;-71
2022/10/13 06:05:41;;;;;;;9.40;6.80;;;10.60;99.90;;;;;;5027562;28;20506;-71
2022/10/13 06:08:08;;;;;;;9.82;6.72;;;10.60;99.90;;;;;;5022494;28;20393;-71
2022/10/13 06:10:35;;;;;;;7.20;6.13;;;10.60;99.90;;;;;;5026833;28;20441;-71
2022/10/13 06:13:01;;;;;;;7.45;6.13;;;10.60;99.90;;;;;;5029653;28;20410;-72
2022/10/13 06:15:26;;;;;;;7.60;6.80;;;10.60;99.90;;;;;;5033994;28;20406;-71
2022/10/13 06:17:52;;;;;;;10.45;6.40;;;10.60;99.90;;;;;;5032971;28;20778;-71
2022/10/13 06:20:17;;;;;;;8.90;6.00;;;10.70;99.90;;;;;;5024724;28;20403;-71
2022/10/13 06:22:43;;;;;;;7.82;7.03;;;10.70;99.90;;;;;;5034626;28;20418;-71
2022/10/13 06:25:09;;;;;;;10.80;7.30;;;10.80;99.90;;;;;;5024342;28;20425;-71
2022/10/13 06:27:34;;;;;;;10.47;6.80;;;10.80;99.90;;;;;;5011825;28;20432;-71
2022/10/13 06:30:00;;;;;;;8.97;6.30;;;10.80;99.90;;;;;;5028083;28;20414;-72
2022/10/13 06:32:26;;;;;;;9.93;6.07;;;10.80;99.90;;;;;;5031856;28;20398;-71
2022/10/13 06:34:52;;;;;;;9.50;6.43;;;10.90;99.90;;;;;;5031335;28;20383;-72
2022/10/13 06:37:18;;;;;;;10.02;6.72;;;10.90;99.90;;;;;;5014529;28;20753;-72
2022/10/13 06:39:43;;;;;;;8.33;6.83;;;11.00;99.90;;;;;;5027094;28;20412;-72
2022/10/13 06:42:09;;;;;;;9.40;6.30;;;11.00;99.90;;;;;;5025491;28;20912;-72
2022/10/13 06:44:34;;;;;;;8.10;6.90;;;11.10;99.90;;;;;;5023112;28;20396;-73
2022/10/13 06:47:02;;;;;;;8.77;6.37;;;11.10;99.90;;;;;;5023500;28;20511;-72
2022/10/13 06:49:27;;;;;;;9.90;6.87;;;11.10;99.90;;;;;;5034467;28;20397;-72
2022/10/13 06:51:53;;;;;;;10.30;5.97;;;11.20;99.90;;;;;;5034416;28;20399;-73
2022/10/13 06:54:18;;;;;;;7.07;6.30;;;11.40;99.90;;;;;;5027800;28;20411;-73
2022/10/13 06:56:44;;;;;;;10.00;6.30;;;11.50;99.90;;;;;;5020979;28;20464;-73
2022/10/13 06:59:10;;;;;;;8.23;6.35;;;11.60;99.90;;;;;;5021772;28;20426;-73
2022/10/13 07:01:35;;;;;;;7.80;6.30;;;11.60;99.90;;;;;;5020270;28;22293;-73
2022/10/13 07:04:03;;;;;;;9.95;5.45;;;11.60;99.90;;;;;;5019344;28;20657;-73
2022/10/13 07:06:28;;;;;;;6.70;5.87;;;11.60;99.90;;;;;;5026981;28;20505;-73
2022/10/13 07:08:53;;;;;;;7.18;5.50;;;11.60;99.90;;;;;;5040522;28;20414;-73
2022/10/13 07:11:19;;;;;;;6.10;5.50;;;11.70;99.90;;;;;;5034298;28;20416;-73
2022/10/13 07:13:45;;;;;;;7.27;5.63;;;11.70;99.90;;;;;;5021019;28;20793;-73
2022/10/13 07:16:10;;;;;;;7.63;5.47;;;11.80;99.90;;;;;;5021794;28;20424;-73
2022/10/13 07:18:36;;;;;;;7.20;5.60;;;11.80;99.90;;;;;;5022452;28;20411;-73
2022/10/13 07:21:02;;;;;;;7.82;5.55;;;11.80;99.90;;;;;;5021792;28;20898;-73
2022/10/13 07:23:28;;;;;;;7.82;5.25;;;11.80;99.90;;;;;;5023235;28;20408;-72
2022/10/13 07:25:58;;;;;;;6.15;5.47;;;11.80;99.90;;;;;;5021426;28;20509;-73
2022/10/13 07:28:25;;;;;;;8.23;5.80;;;11.80;99.90;;;;;;5025350;28;20404;-73
2022/10/13 07:30:51;;;;;;;5.95;5.10;;;11.90;99.90;;;;;;5022924;28;20399;-73
2022/10/13 07:33:18;;;;;;;6.35;5.28;;;11.90;99.90;;;;;;5022853;28;20409;-73
2022/10/13 07:35:43;;;;;;;6.45;5.55;;;12.00;99.90;;;;;;5025410;28;20524;-73
2022/10/13 07:38:10;;;;;;;6.70;5.53;;;12.00;99.90;;;;;;5013210;28;20960;-71
2022/10/13 07:40:37;;;;;;;5.65;4.90;;;12.10;99.90;;;;;;5025751;28;20945;-71
2022/10/13 07:43:02;;;;;;;7.20;5.65;;;12.20;99.90;;;;;;5019004;28;20404;-71
2022/10/13 07:45:28;;;;;;;7.30;5.47;;;12.30;99.90;;;;;;5022410;28;20426;-71
2022/10/13 07:47:54;;;;;;;7.22;5.82;;;12.30;99.90;;;;;;5026993;28;20407;-71
2022/10/13 07:50:20;;;;;;;5.28;4.78;;;12.40;99.90;;;;;;5028585;28;20948;-71
2022/10/13 07:52:46;;;;;;;7.13;6.27;;;12.50;99.90;;;;;;5022199;28;20482;-71
2022/10/13 07:55:11;;;;;;;8.18;6.20;;;12.50;99.90;;;;;;5030586;28;20384;-72
2022/10/13 07:57:37;;;;;;;7.93;5.10;;;12.70;99.90;;;;;;5022707;28;20445;-72
2022/10/13 08:00:05;;;;;;;7.38;5.35;;;12.80;99.90;;;;;;5026005;28;20403;-71
2022/10/13 08:02:30;;;;;;;7.03;5.18;;;12.90;99.90;;;;;;5029554;28;20449;-71
2022/10/13 08:04:56;;;;;;;6.63;4.90;;;13.10;99.90;;;;;;5022474;28;20412;-72
2022/10/13 08:07:22;;;;;;;9.33;4.50;;;13.20;99.90;;;;;;5023502;28;20497;-72
2022/10/13 08:09:47;;;;;;;8.25;4.63;;;13.40;99.90;;;;;;5027852;28;20399;-72
2022/10/13 08:12:13;;;;;;;6.40;5.00;;;13.50;99.90;;;;;;5010647;28;20797;-72
2022/10/13 08:14:38;;;;;;;5.00;4.10;;;13.60;99.90;;;;;;5027303;28;20399;-71
2022/10/13 08:17:04;;;;;;;6.57;4.10;;;13.80;99.90;;;;;;5030121;28;20742;-72
2022/10/13 08:19:29;;;;;;;7.23;4.20;;;13.80;99.90;;;;;;5030159;28;20429;-72
2022/10/13 08:21:55;;;;;;;5.78;4.20;;;13.90;99.90;;;;;;5030102;28;20544;-72
2022/10/13 08:24:24;;;;;;;5.40;3.92;;;13.90;99.90;;;;;;5029505;28;20414;-72
2022/10/13 08:26:50;;;;;;;4.53;4.13;;;13.90;99.90;;;;;;5030158;28;20399;-72
2022/10/13 08:29:16;;;;;;;6.03;3.97;;;13.90;99.90;;;;;;5030119;28;20375;-71
2022/10/13 08:31:42;;;;;;;4.60;4.00;;;14.00;99.90;;;;;;5029586;28;20908;-72
2022/10/13 08:34:09;;;;;;;6.70;4.20;;;14.10;99.90;;;;;;5029909;28;20391;-72
2022/10/13 08:36:35;;;;;;;5.07;3.83;;;14.20;99.90;;;;;;5030014;28;20812;-72
2022/10/13 08:39:01;;;;;;;4.63;3.53;;;14.30;99.90;;;;;;5030122;28;20391;-72
2022/10/13 08:41:32;;;;;;;6.20;3.60;;;14.20;99.90;;;;;;5030112;28;20441;-72
2022/10/13 08:44:26;;;;;;;8.38;3.90;;;14.20;99.90;;;;;;5029380;28;20719;-72
2022/10/13 08:47:08;;;;;;;4.10;3.70;;;14.20;99.90;;;;;;5018804;28;20501;-72
2022/10/13 08:49:34;;;;;;;5.75;3.60;;;14.20;99.90;;;;;;5028883;28;20403;-72
2022/10/13 08:52:03;;;;;;;5.97;3.30;;;14.20;99.90;;;;;;5029499;28;20750;-72
2022/10/13 08:54:29;;;;;;;4.93;3.83;;;14.30;99.90;;;;;;5029526;28;20391;-72
2022/10/13 08:56:54;;;;;;;6.90;4.57;;;14.30;99.90;;;;;;5029958;28;20387;-72
2022/10/13 08:59:20;;;;;;;6.77;5.07;;;14.30;99.90;;;;;;5029624;28;20393;-72
2022/10/13 09:01:48;;;;;;;7.20;5.70;;;14.20;99.90;;;;;;5029732;28;20391;-72
2022/10/13 09:04:22;;;;;;;10.57;6.78;;;14.30;99.90;;;;;;5029166;28;20901;-72
2022/10/13 09:06:57;;;;;;;8.05;5.60;;;14.30;99.90;;;;;;5029013;28;20407;-72
2022/10/13 09:09:23;;;;;;;7.90;4.53;;;14.30;99.90;;;;;;5029464;28;20476;-72
2022/10/13 09:11:49;;;;;;;6.53;4.80;;;14.40;99.90;;;;;;5029457;28;20426;-72
2022/10/13 09:14:26;;;;;;;6.20;4.13;;;14.40;99.90;;;;;;5029354;28;20383;-72
2022/10/13 09:16:53;;;;;;;8.60;4.20;;;14.50;99.90;;;;;;5029618;28;20390;-72
2022/10/13 09:19:39;;;;;;;4.40;4.00;;;14.50;99.90;;;;;;5029388;28;20433;-73
2022/10/13 09:22:14;;;;;;;6.80;4.00;;;14.60;99.90;;;;;;5004249;28;20396;-73
2022/10/13 09:24:40;;;;;;;4.15;3.40;;;14.70;99.90;;;;;;5020677;28;20407;-73
2022/10/13 09:27:12;;;;;;;5.05;4.30;;;14.80;99.90;;;;;;5029028;28;20564;-72
2022/10/13 09:29:38;;;;;;;5.72;4.63;;;14.70;99.90;;;;;;5029487;28;20441;-72
2022/10/13 09:32:15;;;;;;;4.25;3.85;;;14.70;99.90;;;;;;5029539;28;20387;-72
2022/10/13 09:34:40;;;;;;;5.30;4.30;;;14.80;99.90;;;;;;5028990;28;20454;-72
2022/10/13 09:37:18;;;;;;;7.70;4.90;;;14.80;99.90;;;;;;5029461;28;20391;-72
2022/10/13 09:39:44;;;;;;;5.70;4.00;;;14.90;99.90;;;;;;5029176;28;20399;-73
2022/10/13 09:42:25;;;;;;;7.30;4.85;;;15.00;99.90;;;;;;5028770;28;20415;-73
2022/10/13 09:45:00;;;;;;;4.60;4.20;;;15.10;99.90;;;;;;5029450;28;20444;-72
2022/10/13 09:47:28;;;;;;;4.80;4.30;;;15.10;99.90;;;;;;5029169;28;20900;-72
2022/10/13 09:50:13;;;;;;;7.30;4.50;;;15.20;99.90;;;;;;5029380;28;20383;-72
2022/10/13 09:52:39;;;;;;;8.20;4.10;;;15.30;99.90;;;;;;5028917;28;20433;-72
2022/10/13 09:55:30;;;;;;;4.80;4.20;;;15.40;99.90;;;;;;5029195;28;21082;-72
2022/10/13 09:58:09;;;;;;;8.30;4.05;;;15.50;99.90;;;;;;5009926;28;20404;-73
2022/10/13 10:00:36;;;;;;;5.90;4.18;;;15.50;99.90;;;;;;5013158;28;20388;-72
2022/10/13 10:03:25;;;;;;;5.38;3.80;;;15.50;99.90;;;;;;5012361;28;20802;-72
2022/10/13 10:05:54;;;;;;;4.30;3.80;;;15.70;99.90;;;;;;5012803;28;20416;-73
2022/10/13 10:08:21;;;;;;;4.20;3.50;;;15.80;99.90;;;;;;5012886;28;20396;-72
2022/10/13 10:10:47;;;;;;;4.20;3.78;;;15.80;99.90;;;;;;5027465;28;20391;-72
2022/10/13 10:13:13;;;;;;;5.37;3.47;;;16.10;99.90;;;;;;5014382;28;20917;-72
2022/10/13 10:16:08;;;;;;;5.80;3.80;;;16.10;99.90;;;;;;5032418;28;20387;-72
2022/10/13 10:19:02;;;;;;;5.00;3.30;;;16.30;99.90;;;;;;5032504;28;20380;-72
2022/10/13 10:21:37;;;;;;;5.55;3.67;;;16.40;99.90;;;;;;5030087;28;20391;-72
2022/10/13 10:24:11;;;;;;;4.82;3.80;;;16.60;99.90;;;;;;4994791;28;20415;-72
2022/10/13 10:26:55;;;;;;;7.03;4.00;;;16.50;99.90;;;;;;5012654;28;20838;-74
2022/10/13 10:29:45;;;;;;;6.00;3.85;;;16.60;99.90;;;;;;5012494;28;20388;-72
2022/10/13 10:32:26;;;;;;;5.07;4.28;;;16.50;99.90;;;;;;5012385;28;20412;-73
2022/10/13 10:35:10;;;;;;;9.32;4.78;;;16.40;99.90;;;;;;5012386;28;20384;-73
2022/10/13 10:37:54;;;;;;;6.25;5.10;;;16.40;99.90;;;;;;5022890;28;20395;-72
2022/10/13 10:40:35;;;;;;;6.53;5.65;;;16.40;99.90;;;;;;5014209;28;20399;-72
2022/10/13 10:43:25;;;;;;;8.73;6.40;;;16.50;99.90;;;;;;5031826;28;20764;-72
2022/10/13 10:45:53;;;;;;;8.88;6.20;;;16.60;99.90;;;;;;5031817;28;20399;-72
2022/10/13 10:48:31;;;;;;;8.57;6.25;;;16.60;99.90;;;;;;5031943;28;20383;-72
2022/10/13 10:50:59;;;;;;;5.87;5.20;;;16.70;99.90;;;;;;5014126;28;20394;-72
2022/10/13 10:54:02;;;;;;;7.40;5.23;;;16.90;99.90;;;;;;5030922;28;20478;-72
2022/10/13 10:56:43;;;;;;;7.35;5.13;;;17.00;99.90;;;;;;5031794;28;20765;-72
2022/10/13 10:59:39;;;;;;;5.93;4.00;;;17.20;99.90;;;;;;5013768;28;20422;-72
2022/10/13 11:02:32;;;;;;;7.45;4.32;;;17.20;99.90;;;;;;5032043;28;20416;-73
2022/10/13 11:04:59;;;;;;;7.43;4.32;;;17.20;99.90;;;;;;5030988;28;20407;-73
2022/10/13 11:07:24;;;;;;;5.68;4.00;;;17.30;99.90;;;;;;5013797;28;20410;-73
2022/10/13 11:09:50;;;;;;;7.53;4.10;;;17.30;99.90;;;;;;5032259;28;20383;-72
2022/10/13 11:12:19;;;;;;;8.20;3.80;;;17.50;99.90;;;;;;5013801;28;20782;-72
2022/10/13 11:15:02;;;;;;;5.75;4.05;;;17.60;99.90;;;;;;5030419;28;20383;-72
2022/10/13 11:17:33;;;;;;;9.38;4.63;;;17.60;99.90;;;;;;5031281;28;20395;-72
2022/10/13 11:19:59;;;;;;;7.00;3.70;;;17.70;99.90;;;;;;5031077;28;20386;-72
2022/10/13 11:22:26;;;;;;;4.87;3.43;;;17.80;99.90;;;;;;5021216;28;20388;-72
2022/10/13 11:24:55;;;;;;;7.60;3.97;;;17.90;99.90;;;;;;5011334;28;20397;-72
2022/10/13 11:27:31;;;;;;;5.90;3.90;;;18.20;99.90;;;;;;5011630;28;20456;-73
2022/10/13 11:29:59;;;;;;;4.50;3.13;;;18.40;99.90;;;;;;5010498;28;20423;-73
2022/10/13 11:32:24;;;;;;;6.60;3.50;;;18.10;99.90;;;;;;5029892;28;20405;-72
2022/10/13 11:35:21;;;;;;;5.90;3.43;;;18.20;99.90;;;;;;5031263;28;20757;-73
2022/10/13 11:37:56;;;;;;;6.37;3.60;;;18.40;99.90;;;;;;5030086;28;20777;-72
2022/10/13 11:40:55;;;;;;;7.68;3.63;;;18.70;99.90;;;;;;5031680;28;20379;-73
2022/10/13 11:43:48;;;;;;;5.50;3.60;;;19.00;99.90;;;;;;5031051;28;20383;-73
2022/10/13 11:47:06;;;;;;;6.77;4.20;;;18.90;99.90;;;;;;5031154;28;20454;-74
2022/10/13 11:50:06;;;;;;;6.32;3.97;;;19.30;99.90;;;;;;4987607;28;20904;-74
2022/10/13 11:52:49;;;;;;;7.78;4.25;;;20.20;99.90;;;;;;5030988;28;20857;-72
2022/10/13 11:55:18;;;;;;;6.07;4.10;;;20.40;99.90;;;;;;5030749;28;20437;-72
2022/10/13 11:57:44;;;;;;;5.15;3.92;;;19.70;99.90;;;;;;5031025;28;20406;-71
2022/10/13 12:00:16;;;;;;;6.20;3.80;;;19.60;99.90;;;;;;5013110;28;20390;-72
2022/10/13 12:02:51;;;;;;;7.30;3.63;;;19.60;99.90;;;;;;5030792;28;20521;-72
2022/10/13 12:05:27;;;;;;;5.25;3.60;;;19.60;99.90;;;;;;5030411;28;20818;-72
2022/10/13 12:07:59;;;;;;;7.18;4.10;;;20.00;99.90;;;;;;5030752;28;20513;-71
2022/10/13 12:10:34;;;;;;;7.00;3.97;;;19.80;99.90;;;;;;5030728;28;20411;-71
2022/10/13 12:13:01;;;;;;;8.35;3.70;;;20.00;99.90;;;;;;5030374;28;20387;-72
2022/10/13 12:15:42;;;;;;;6.45;3.60;;;20.30;99.90;;;;;;5030537;28;20375;-72
2022/10/13 12:18:36;;;;;;;6.75;3.60;;;20.70;99.90;;;;;;5030623;28;20429;-72
2022/10/13 12:21:09;;;;;;;5.75;3.45;;;20.60;99.90;;;;;;5029633;28;20391;-72
2022/10/13 12:23:35;;;;;;;6.60;4.00;;;20.00;99.90;;;;;;5019579;28;20445;-72
2022/10/13 12:26:01;;;;;;;6.10;3.83;;;19.50;99.90;;;;;;5030441;28;20509;-72
2022/10/13 12:28:50;;;;;;;4.88;3.28;;;19.30;99.90;;;;;;5030701;28;20384;-73
2022/10/13 12:31:21;;;;;;;7.32;3.50;;;19.20;99.90;;;;;;5012806;28;20391;-72
2022/10/13 12:33:55;;;;;;;5.20;3.73;;;18.90;99.90;;;;;;5030475;28;20384;-72
2022/10/13 12:36:27;;;;;;;7.40;3.55;;;19.00;99.90;;;;;;5029868;28;20922;-72
2022/10/13 12:38:56;;;;;;;4.93;3.30;;;18.90;99.90;;;;;;5023996;28;20502;-72
2022/10/13 12:41:27;;;;;;;6.90;3.30;;;18.80;99.90;;;;;;5025975;28;20909;-72
2022/10/13 12:43:56;;;;;;;5.35;3.00;;;18.90;99.90;;;;;;5014430;28;20772;-72
2022/10/13 12:46:41;;;;;;;6.45;3.55;;;18.70;99.90;;;;;;5028110;28;20411;-72
2022/10/13 12:49:28;;;;;;;5.68;3.10;;;18.50;99.90;;;;;;5016242;28;20773;-71
2022/10/13 12:52:22;;;;;;;5.75;2.78;;;18.50;99.90;;;;;;5022477;28;20979;-72
2022/10/13 12:54:56;;;;;;;5.57;2.88;;;18.60;99.90;;;;;;5028320;28;20390;-73
2022/10/13 12:57:36;;;;;;;6.75;3.60;;;18.50;99.90;;;;;;5022061;28;20742;-73
2022/10/13 13:00:19;;;;;;;6.68;2.90;;;18.40;99.90;;;;;;5027508;28;21222;-72
2022/10/13 13:02:56;;;;;;;4.18;3.00;;;18.40;99.90;;;;;;5020480;28;20401;-73